sensor_id;sensor_type;location;lat;lon;timestamp;pressure;altitude;pressure_sealevel;temperature;humidity
69751;BME280;57335;52.288;6.056;2022-09-28T00:02:08;99560.88;;;8.85;98.81
69751;BME280;57335;52.288;6.056;2022-09-28T00:04:35;99558.47;;;8.84;99.14
69751;BME280;57335;52.288;6.056;2022-09-28T00:07:01;99562.50;;;8.86;99.40
69751;BME280;57335;52.288;6.056;2022-09-28T00:09:27;99558.03;;;8.87;99.35
69751;BME280;57335;52.288;6.056;2022-09-28T00:11:54;99546.91;;;8.79;98.83
69751;BME280;57335;52.288;6.056;2022-09-28T00:14:20;99530.91;;;8.76;98.92
69751;BME280;57335;52.288;6.056;2022-09-28T00:16:47;99549.28;;;8.81;98.40
69751;BME280;57335;52.288;6.056;2022-09-28T00:19:13;99555.09;;;8.83;98.35
69751;BME280;57335;52.288;6.056;2022-09-28T00:21:40;99559.75;;;8.81;98.26
69751;BME280;57335;52.288;6.056;2022-09-28T00:24:11;99544.53;;;8.78;98.31
69751;BME280;57335;52.288;6.056;2022-09-28T00:26:41;99538.03;;;8.69;98.20
69751;BME280;57335;52.288;6.056;2022-09-28T00:29:21;99533.50;;;8.64;98.02
69751;BME280;57335;52.288;6.056;2022-09-28T00:31:50;99549.75;;;8.66;97.67
69751;BME280;57335;52.288;6.056;2022-09-28T00:34:17;99547.78;;;8.62;98.14
69751;BME280;57335;52.288;6.056;2022-09-28T00:36:45;99548.47;;;8.57;98.18
69751;BME280;57335;52.288;6.056;2022-09-28T00:39:13;99548.69;;;8.55;98.32
69751;BME280;57335;52.288;6.056;2022-09-28T00:41:40;99536.09;;;8.52;98.39
69751;BME280;57335;52.288;6.056;2022-09-28T00:46:57;99551.63;;;8.47;98.46
69751;BME280;57335;52.288;6.056;2022-09-28T00:49:31;99546.59;;;8.46;98.40
69751;BME280;57335;52.288;6.056;2022-09-28T00:52:00;99542.06;;;8.41;98.41
69751;BME280;57335;52.288;6.056;2022-09-28T00:54:28;99542.63;;;8.43;98.41
69751;BME280;57335;52.288;6.056;2022-09-28T00:56:54;99545.47;;;8.42;98.79
69751;BME280;57335;52.288;6.056;2022-09-28T00:59:22;99542.06;;;8.41;98.99
69751;BME280;57335;52.288;6.056;2022-09-28T01:01:48;99543.84;;;8.41;99.23
69751;BME280;57335;52.288;6.056;2022-09-28T01:04:15;99524.88;;;8.33;99.09
69751;BME280;57335;52.288;6.056;2022-09-28T01:06:42;99541.69;;;8.37;99.24
69751;BME280;57335;52.288;6.056;2022-09-28T01:09:11;99532.28;;;8.36;99.10
69751;BME280;57335;52.288;6.056;2022-09-28T01:11:39;99533.84;;;8.37;99.44
69751;BME280;57335;52.288;6.056;2022-09-28T01:14:09;99528.31;;;8.34;99.64
69751;BME280;57335;52.288;6.056;2022-09-28T01:16:43;99539.19;;;8.31;99.15
69751;BME280;57335;52.288;6.056;2022-09-28T01:28:27;99529.91;;;8.05;98.24
69751;BME280;57335;52.288;6.056;2022-09-28T01:31:05;99513.06;;;7.89;98.04
69751;BME280;57335;52.288;6.056;2022-09-28T01:33:41;99520.41;;;7.80;97.84
69751;BME280;57335;52.288;6.056;2022-09-28T01:36:24;99526.25;;;7.75;98.22
69751;BME280;57335;52.288;6.056;2022-09-28T01:39:08;99516.78;;;7.63;97.87
69751;BME280;57335;52.288;6.056;2022-09-28T01:41:38;99506.66;;;7.54;98.04
69751;BME280;57335;52.288;6.056;2022-09-28T01:44:08;99525.69;;;7.55;97.47
69751;BME280;57335;52.288;6.056;2022-09-28T01:46:40;99526.00;;;7.47;97.55
69751;BME280;57335;52.288;6.056;2022-09-28T01:49:16;99527.84;;;7.39;97.75
69751;BME280;57335;52.288;6.056;2022-09-28T01:51:56;99516.56;;;7.27;97.88
69751;BME280;57335;52.288;6.056;2022-09-28T01:54:29;99525.63;;;7.25;98.04
69751;BME280;57335;52.288;6.056;2022-09-28T01:57:06;99518.50;;;7.13;98.63
69751;BME280;57335;52.288;6.056;2022-09-28T01:59:36;99529.50;;;7.15;99.00
69751;BME280;57335;52.288;6.056;2022-09-28T02:02:12;99521.94;;;7.14;99.17
69751;BME280;57335;52.288;6.056;2022-09-28T02:04:54;99520.78;;;7.10;100.00
69751;BME280;57335;52.288;6.056;2022-09-28T02:09:59;99524.53;;;7.14;100.00
69751;BME280;57335;52.288;6.056;2022-09-28T02:12:32;99506.94;;;7.09;100.00
69751;BME280;57335;52.288;6.056;2022-09-28T02:15:15;99507.09;;;7.14;100.00
69751;BME280;57335;52.288;6.056;2022-09-28T02:17:43;99510.69;;;7.13;100.00
69751;BME280;57335;52.288;6.056;2022-09-28T02:20:10;99520.78;;;7.28;100.00
69751;BME280;57335;52.288;6.056;2022-09-28T02:22:46;99517.97;;;7.30;100.00
69751;BME280;57335;52.288;6.056;2022-09-28T02:25:23;99512.31;;;7.33;100.00
69751;BME280;57335;52.288;6.056;2022-09-28T02:28:01;99517.44;;;7.39;100.00
69751;BME280;57335;52.288;6.056;2022-09-28T02:30:32;99517.44;;;7.39;100.00
69751;BME280;57335;52.288;6.056;2022-09-28T02:33:07;99538.16;;;7.53;100.00
69751;BME280;57335;52.288;6.056;2022-09-28T02:35:36;99531.69;;;7.55;100.00
69751;BME280;57335;52.288;6.056;2022-09-28T02:38:03;99536.50;;;7.58;100.00
69751;BME280;57335;52.288;6.056;2022-09-28T02:40:34;99530.81;;;7.62;100.00
69751;BME280;57335;52.288;6.056;2022-09-28T02:43:12;99532.22;;;7.64;100.00
69751;BME280;57335;52.288;6.056;2022-09-28T02:49:28;99543.00;;;7.68;100.00
69751;BME280;57335;52.288;6.056;2022-09-28T02:52:02;99545.97;;;7.71;100.00
69751;BME280;57335;52.288;6.056;2022-09-28T02:57:11;99548.94;;;7.75;100.00
69751;BME280;57335;52.288;6.056;2022-09-28T03:11:02;99538.94;;;7.72;100.00
69751;BME280;57335;52.288;6.056;2022-09-28T03:13:30;99546.69;;;7.78;100.00
69751;BME280;57335;52.288;6.056;2022-09-28T03:16:29;99557.69;;;7.81;100.00
69751;BME280;57335;52.288;6.056;2022-09-28T03:18:55;99553.28;;;7.81;100.00
69751;BME280;57335;52.288;6.056;2022-09-28T03:21:21;99543.06;;;7.79;100.00
69751;BME280;57335;52.288;6.056;2022-09-28T03:23:48;99550.44;;;7.83;100.00
69751;BME280;57335;52.288;6.056;2022-09-28T03:26:14;99547.63;;;7.84;100.00
69751;BME280;57335;52.288;6.056;2022-09-28T03:28:41;99535.09;;;7.74;100.00
69751;BME280;57335;52.288;6.056;2022-09-28T03:31:07;99549.41;;;7.84;100.00
69751;BME280;57335;52.288;6.056;2022-09-28T03:33:34;99552.59;;;7.86;100.00
69751;BME280;57335;52.288;6.056;2022-09-28T03:36:00;99550.00;;;7.86;100.00
69751;BME280;57335;52.288;6.056;2022-09-28T03:38:26;99537.63;;;7.81;100.00
69751;BME280;57335;52.288;6.056;2022-09-28T03:40:58;99555.00;;;7.87;100.00
69751;BME280;57335;52.288;6.056;2022-09-28T03:43:26;99549.00;;;7.87;100.00
69751;BME280;57335;52.288;6.056;2022-09-28T03:45:54;99530.59;;;7.82;100.00
69751;BME280;57335;52.288;6.056;2022-09-28T03:48:29;99534.81;;;7.83;100.00
69751;BME280;57335;52.288;6.056;2022-09-28T03:51:00;99534.81;;;7.83;100.00
69751;BME280;57335;52.288;6.056;2022-09-28T03:53:27;99529.78;;;7.81;100.00
69751;BME280;57335;52.288;6.056;2022-09-28T03:55:54;99540.38;;;7.86;100.00
69751;BME280;57335;52.288;6.056;2022-09-28T03:58:21;99541.16;;;7.87;100.00
69751;BME280;57335;52.288;6.056;2022-09-28T04:00:48;99537.78;;;7.86;100.00
69751;BME280;57335;52.288;6.056;2022-09-28T04:03:15;99530.16;;;7.85;100.00
69751;BME280;57335;52.288;6.056;2022-09-28T04:05:48;99542.78;;;7.88;100.00
69751;BME280;57335;52.288;6.056;2022-09-28T04:08:15;99543.78;;;7.87;100.00
69751;BME280;57335;52.288;6.056;2022-09-28T04:10:42;99544.56;;;7.87;100.00
69751;BME280;57335;52.288;6.056;2022-09-28T04:13:09;99527.06;;;7.76;100.00
69751;BME280;57335;52.288;6.056;2022-09-28T04:15:35;99543.78;;;7.87;100.00
69751;BME280;57335;52.288;6.056;2022-09-28T04:18:02;99526.50;;;7.74;100.00
69751;BME280;57335;52.288;6.056;2022-09-28T04:20:28;99543.19;;;7.85;100.00
69751;BME280;57335;52.288;6.056;2022-09-28T04:22:56;99547.63;;;7.84;100.00
69751;BME280;57335;52.288;6.056;2022-09-28T04:25:23;99555.22;;;7.86;100.00
69751;BME280;57335;52.288;6.056;2022-09-28T04:27:49;99545.81;;;7.85;100.00
69751;BME280;57335;52.288;6.056;2022-09-28T04:30:15;99552.59;;;7.86;100.00
69751;BME280;57335;52.288;6.056;2022-09-28T04:32:42;99552.59;;;7.86;100.00
69751;BME280;57335;52.288;6.056;2022-09-28T04:35:10;99555.22;;;7.86;100.00
69751;BME280;57335;52.288;6.056;2022-09-28T04:37:36;99542.03;;;7.81;100.00
69751;BME280;57335;52.288;6.056;2022-09-28T04:40:03;99535.69;;;7.76;100.00
69751;BME280;57335;52.288;6.056;2022-09-28T04:42:29;99550.81;;;7.86;100.00
69751;BME280;57335;52.288;6.056;2022-09-28T04:44:56;99554.22;;;7.87;100.00
69751;BME280;57335;52.288;6.056;2022-09-28T04:47:22;99544.66;;;7.81;100.00
69751;BME280;57335;52.288;6.056;2022-09-28T04:49:48;99541.47;;;7.78;100.00
69751;BME280;57335;52.288;6.056;2022-09-28T04:52:15;99548.50;;;7.78;100.00
69751;BME280;57335;52.288;6.056;2022-09-28T04:54:43;99539.88;;;7.77;100.00
69751;BME280;57335;52.288;6.056;2022-09-28T04:57:10;99540.91;;;7.76;100.00
69751;BME280;57335;52.288;6.056;2022-09-28T04:59:36;99550.66;;;7.81;100.00
69751;BME280;57335;52.288;6.056;2022-09-28T05:02:03;99553.28;;;7.81;100.00
69751;BME280;57335;52.288;6.056;2022-09-28T05:04:29;99537.50;;;7.76;100.00
69751;BME280;57335;52.288;6.056;2022-09-28T05:06:56;99551.13;;;7.78;100.00
69751;BME280;57335;52.288;6.056;2022-09-28T05:09:23;99549.50;;;7.77;100.00
69751;BME280;57335;52.288;6.056;2022-09-28T05:11:50;99536.97;;;7.67;100.00
69751;BME280;57335;52.288;6.056;2022-09-28T05:14:16;99540.81;;;7.65;100.00
69751;BME280;57335;52.288;6.056;2022-09-28T05:16:43;99542.06;;;7.62;100.00
69751;BME280;57335;52.288;6.056;2022-09-28T05:19:10;99546.84;;;7.65;100.00
69751;BME280;57335;52.288;6.056;2022-09-28T05:21:36;99547.34;;;7.55;100.00
69751;BME280;57335;52.288;6.056;2022-09-28T05:24:03;99552.22;;;7.52;100.00
69751;BME280;57335;52.288;6.056;2022-09-28T05:26:29;99557.47;;;7.45;99.63
69751;BME280;57335;52.288;6.056;2022-09-28T05:28:55;99555.94;;;7.37;99.85
69751;BME280;57335;52.288;6.056;2022-09-28T05:31:21;99555.06;;;7.25;99.55
69751;BME280;57335;52.288;6.056;2022-09-28T05:33:48;99559.69;;;7.23;99.72
69751;BME280;57335;52.288;6.056;2022-09-28T05:36:14;99557.97;;;7.17;99.96
69751;BME280;57335;52.288;6.056;2022-09-28T05:38:41;99560.44;;;7.12;99.81
69751;BME280;57335;52.288;6.056;2022-09-28T05:41:07;99560.84;;;7.09;99.99
69751;BME280;57335;52.288;6.056;2022-09-28T05:43:33;99551.06;;;7.04;99.93
69751;BME280;57335;52.288;6.056;2022-09-28T05:46:00;99541.13;;;6.94;99.75
69751;BME280;57335;52.288;6.056;2022-09-28T05:48:26;99541.13;;;6.94;99.51
69751;BME280;57335;52.288;6.056;2022-09-28T05:50:53;99549.75;;;6.95;99.52
69751;BME280;57335;52.288;6.056;2022-09-28T05:53:19;99555.16;;;6.93;99.51
69751;BME280;57335;52.288;6.056;2022-09-28T05:55:46;99543.44;;;6.84;99.66
69751;BME280;57335;52.288;6.056;2022-09-28T05:58:13;99540.03;;;6.84;99.95
69751;BME280;57335;52.288;6.056;2022-09-28T06:00:39;99561.91;;;7.01;99.72
69751;BME280;57335;52.288;6.056;2022-09-28T06:03:09;99559.03;;;7.09;99.55
69751;BME280;57335;52.288;6.056;2022-09-28T06:05:36;99563.81;;;7.12;98.85
69751;BME280;57335;52.288;6.056;2022-09-28T06:08:04;99566.44;;;7.12;98.29
69751;BME280;57335;52.288;6.056;2022-09-28T06:10:31;99565.63;;;7.12;98.11
69751;BME280;57335;52.288;6.056;2022-09-28T06:12:59;99560.47;;;7.05;98.07
69751;BME280;57335;52.288;6.056;2022-09-28T06:15:28;99561.69;;;7.03;98.11
69751;BME280;57335;52.288;6.056;2022-09-28T06:18:03;99562.72;;;7.02;98.31
69751;BME280;57335;52.288;6.056;2022-09-28T06:20:33;99581.69;;;7.09;98.22
69751;BME280;57335;52.288;6.056;2022-09-28T06:22:59;99566.31;;;7.01;98.66
69751;BME280;57335;52.288;6.056;2022-09-28T06:25:26;99569.94;;;6.99;98.25
69751;BME280;57335;52.288;6.056;2022-09-28T06:28:00;99577.91;;;7.05;98.61
69751;BME280;57335;52.288;6.056;2022-09-28T06:30:28;99587.53;;;7.04;98.28
69751;BME280;57335;52.288;6.056;2022-09-28T06:32:57;99584.34;;;7.02;98.41
69751;BME280;57335;52.288;6.056;2022-09-28T06:35:25;99574.34;;;6.99;98.79
69751;BME280;57335;52.288;6.056;2022-09-28T06:37:52;99576.75;;;7.01;98.36
69751;BME280;57335;52.288;6.056;2022-09-28T06:40:20;99582.16;;;6.99;98.65
69751;BME280;57335;52.288;6.056;2022-09-28T06:43:08;99586.38;;;7.00;98.77
69751;BME280;57335;52.288;6.056;2022-09-28T06:45:35;99591.00;;;6.98;98.80
69751;BME280;57335;52.288;6.056;2022-09-28T06:48:02;99599.81;;;6.97;99.20
69751;BME280;57335;52.288;6.056;2022-09-28T06:50:34;99587.44;;;6.92;99.29
69751;BME280;57335;52.288;6.056;2022-09-28T06:53:02;99590.84;;;6.93;99.33
69751;BME280;57335;52.288;6.056;2022-09-28T06:55:29;99594.59;;;6.97;99.76
69751;BME280;57335;52.288;6.056;2022-09-28T06:58:03;99583.97;;;6.98;99.81
69751;BME280;57335;52.288;6.056;2022-09-28T07:00:33;99603.03;;;7.17;99.83
69751;BME280;57335;52.288;6.056;2022-09-28T07:03:05;99604.75;;;7.30;99.73
69751;BME280;57335;52.288;6.056;2022-09-28T07:05:33;99612.00;;;7.47;99.16
69751;BME280;57335;52.288;6.056;2022-09-28T07:08:00;99620.00;;;7.70;99.86
69751;BME280;57335;52.288;6.056;2022-09-28T07:10:28;99618.09;;;8.14;100.00
69751;BME280;57335;52.288;6.056;2022-09-28T07:12:56;99613.69;;;8.87;100.00
69751;BME280;57335;52.288;6.056;2022-09-28T07:15:23;99617.09;;;9.82;100.00
69751;BME280;57335;52.288;6.056;2022-09-28T07:17:56;99619.13;;;10.78;92.72
69751;BME280;57335;52.288;6.056;2022-09-28T07:20:28;99616.47;;;11.63;87.06
69751;BME280;57335;52.288;6.056;2022-09-28T07:22:58;99616.56;;;12.39;86.49
69751;BME280;57335;52.288;6.056;2022-09-28T07:25:41;99624.38;;;13.26;76.40
69751;BME280;57335;52.288;6.056;2022-09-28T07:28:07;99618.16;;;13.95;79.65
69751;BME280;57335;52.288;6.056;2022-09-28T07:30:34;99610.94;;;14.53;71.49
69751;BME280;57335;52.288;6.056;2022-09-28T07:33:02;99625.72;;;15.21;72.40
69751;BME280;57335;52.288;6.056;2022-09-28T07:35:29;99613.47;;;15.82;71.49
69751;BME280;57335;52.288;6.056;2022-09-28T07:37:59;99623.41;;;16.50;64.88
69751;BME280;57335;52.288;6.056;2022-09-28T07:40:26;99615.59;;;17.03;65.85
69751;BME280;57335;52.288;6.056;2022-09-28T07:42:53;99614.88;;;17.46;61.32
69751;BME280;57335;52.288;6.056;2022-09-28T07:45:19;99633.38;;;17.99;62.93
69751;BME280;57335;52.288;6.056;2022-09-28T07:47:46;99626.81;;;18.34;60.91
69751;BME280;57335;52.288;6.056;2022-09-28T07:50:12;99624.59;;;18.61;56.60
69751;BME280;57335;52.288;6.056;2022-09-28T07:52:38;99631.88;;;18.88;54.96
69751;BME280;57335;52.288;6.056;2022-09-28T07:55:05;99628.69;;;19.05;57.09
69751;BME280;57335;52.288;6.056;2022-09-28T07:57:32;99634.84;;;19.47;55.93
69751;BME280;57335;52.288;6.056;2022-09-28T07:59:59;99631.41;;;19.74;55.53
69751;BME280;57335;52.288;6.056;2022-09-28T08:02:25;99633.25;;;20.01;54.99
69751;BME280;57335;52.288;6.056;2022-09-28T08:04:52;99639.53;;;20.42;53.50
69751;BME280;57335;52.288;6.056;2022-09-28T08:07:18;99648.63;;;20.77;53.14
69751;BME280;57335;52.288;6.056;2022-09-28T08:09:49;99648.59;;;21.00;51.45
69751;BME280;57335;52.288;6.056;2022-09-28T08:12:16;99644.44;;;21.16;50.91
69751;BME280;57335;52.288;6.056;2022-09-28T08:14:42;99650.47;;;21.30;49.85
69751;BME280;57335;52.288;6.056;2022-09-28T08:17:08;99665.00;;;21.47;48.53
69751;BME280;57335;52.288;6.056;2022-09-28T08:19:35;99662.38;;;21.64;50.35
69751;BME280;57335;52.288;6.056;2022-09-28T08:22:01;99659.16;;;21.85;49.72
69751;BME280;57335;52.288;6.056;2022-09-28T08:24:27;99664.41;;;22.16;49.04
69751;BME280;57335;52.288;6.056;2022-09-28T08:26:54;99662.22;;;22.53;48.72
69751;BME280;57335;52.288;6.056;2022-09-28T08:29:20;99659.69;;;22.83;48.11
69751;BME280;57335;52.288;6.056;2022-09-28T08:31:47;99664.72;;;23.10;46.76
69751;BME280;57335;52.288;6.056;2022-09-28T08:34:13;99659.00;;;23.29;47.25
69751;BME280;57335;52.288;6.056;2022-09-28T08:36:40;99670.53;;;23.51;45.06
69751;BME280;57335;52.288;6.056;2022-09-28T08:39:06;99663.66;;;23.41;43.87
69751;BME280;57335;52.288;6.056;2022-09-28T08:41:50;99671.09;;;23.27;43.65
69751;BME280;57335;52.288;6.056;2022-09-28T08:44:22;99677.56;;;23.17;46.72
69751;BME280;57335;52.288;6.056;2022-09-28T08:46:54;99671.31;;;23.04;45.88
69751;BME280;57335;52.288;6.056;2022-09-28T08:49:28;99674.78;;;22.79;45.78
69751;BME280;57335;52.288;6.056;2022-09-28T08:52:05;99675.09;;;22.25;45.88
69751;BME280;57335;52.288;6.056;2022-09-28T08:54:49;99686.00;;;21.88;47.76
69751;BME280;57335;52.288;6.056;2022-09-28T08:57:25;99689.03;;;21.56;47.17
69751;BME280;57335;52.288;6.056;2022-09-28T08:59:55;99679.44;;;21.23;49.45
69751;BME280;57335;52.288;6.056;2022-09-28T09:02:26;99687.16;;;20.80;49.83
69751;BME280;57335;52.288;6.056;2022-09-28T09:04:54;99688.31;;;20.51;52.16
69751;BME280;57335;52.288;6.056;2022-09-28T09:18:22;99689.94;;;19.55;53.76
69751;BME280;57335;52.288;6.056;2022-09-28T09:20:58;99699.19;;;19.44;53.80
69751;BME280;57335;52.288;6.056;2022-09-28T09:26:16;99691.75;;;18.94;54.54
69751;BME280;57335;52.288;6.056;2022-09-28T09:29:23;99699.16;;;18.97;58.15
69751;BME280;57335;52.288;6.056;2022-09-28T09:37:34;99698.13;;;19.12;55.38
69751;BME280;57335;52.288;6.056;2022-09-28T09:40:27;99696.94;;;19.18;54.03
69751;BME280;57335;52.288;6.056;2022-09-28T09:45:56;99712.31;;;19.21;54.36
69751;BME280;57335;52.288;6.056;2022-09-28T09:48:49;99721.34;;;19.06;55.98
69751;BME280;57335;52.288;6.056;2022-09-28T09:51:22;99719.03;;;19.00;56.10
69751;BME280;57335;52.288;6.056;2022-09-28T09:53:55;99716.75;;;18.93;56.22
69751;BME280;57335;52.288;6.056;2022-09-28T09:56:36;99716.88;;;19.02;58.49
69751;BME280;57335;52.288;6.056;2022-09-28T09:59:18;99704.25;;;19.12;57.93
69751;BME280;57335;52.288;6.056;2022-09-28T10:01:47;99694.72;;;19.25;58.71
69751;BME280;57335;52.288;6.056;2022-09-28T10:04:23;99704.50;;;19.44;54.65
69751;BME280;57335;52.288;6.056;2022-09-28T10:06:56;99713.72;;;19.32;55.18
69751;BME280;57335;52.288;6.056;2022-09-28T10:09:34;99712.34;;;19.02;55.59
69751;BME280;57335;52.288;6.056;2022-09-28T10:12:02;99712.44;;;18.59;55.91
69751;BME280;57335;52.288;6.056;2022-09-28T10:14:28;99716.63;;;18.22;57.91
69751;BME280;57335;52.288;6.056;2022-09-28T10:16:56;99715.69;;;17.89;58.39
69751;BME280;57335;52.288;6.056;2022-09-28T10:19:33;99709.69;;;17.49;59.56
69751;BME280;57335;52.288;6.056;2022-09-28T10:22:02;99708.34;;;17.22;59.86
69751;BME280;57335;52.288;6.056;2022-09-28T10:24:43;99717.59;;;16.90;59.40
69751;BME280;57335;52.288;6.056;2022-09-28T10:27:14;99716.81;;;16.80;57.80
69751;BME280;57335;52.288;6.056;2022-09-28T10:29:48;99710.69;;;16.89;60.99
69751;BME280;57335;52.288;6.056;2022-09-28T10:32:26;99699.78;;;17.01;61.02
69751;BME280;57335;52.288;6.056;2022-09-28T10:38:00;99712.22;;;17.64;60.31
69751;BME280;57335;52.288;6.056;2022-09-28T10:40:51;99719.72;;;17.81;59.90
69751;BME280;57335;52.288;6.056;2022-09-28T10:43:50;99723.38;;;17.90;59.50
69751;BME280;57335;52.288;6.056;2022-09-28T10:46:23;99710.50;;;18.03;57.87
69751;BME280;57335;52.288;6.056;2022-09-28T10:49:04;99722.78;;;18.18;59.35
69751;BME280;57335;52.288;6.056;2022-09-28T10:51:45;99714.63;;;18.33;57.78
69751;BME280;57335;52.288;6.056;2022-09-28T10:54:16;99712.22;;;18.37;57.53
69751;BME280;57335;52.288;6.056;2022-09-28T10:56:43;99712.72;;;18.39;58.96
69751;BME280;57335;52.288;6.056;2022-09-28T11:02:06;99711.66;;;18.16;57.19
69751;BME280;57335;52.288;6.056;2022-09-28T11:04:40;99710.84;;;17.96;57.56
69751;BME280;57335;52.288;6.056;2022-09-28T11:07:18;99710.69;;;17.82;58.31
69751;BME280;57335;52.288;6.056;2022-09-28T11:09:47;99702.66;;;17.63;58.55
69751;BME280;57335;52.288;6.056;2022-09-28T11:12:16;99712.06;;;17.50;57.81
69751;BME280;57335;52.288;6.056;2022-09-28T11:14:43;99726.66;;;17.48;59.15
69751;BME280;57335;52.288;6.056;2022-09-28T11:17:32;99715.59;;;17.41;60.04
69751;BME280;57335;52.288;6.056;2022-09-28T11:22:54;99723.91;;;17.29;60.36
69751;BME280;57335;52.288;6.056;2022-09-28T11:25:24;99722.19;;;17.14;58.36
69751;BME280;57335;52.288;6.056;2022-09-28T11:30:43;99717.63;;;16.80;59.75
69751;BME280;57335;52.288;6.056;2022-09-28T11:33:14;99728.84;;;16.62;60.43
69751;BME280;57335;52.288;6.056;2022-09-28T11:36:02;99705.16;;;16.41;61.78
69751;BME280;57335;52.288;6.056;2022-09-28T11:44:37;99696.56;;;16.60;63.02
69751;BME280;57335;52.288;6.056;2022-09-28T11:50:40;99708.03;;;16.94;62.05
69751;BME280;57335;52.288;6.056;2022-09-28T11:53:27;99718.19;;;17.17;60.76
69751;BME280;57335;52.288;6.056;2022-09-28T11:56:04;99712.06;;;17.21;60.13
69751;BME280;57335;52.288;6.056;2022-09-28T11:58:39;99705.72;;;17.22;61.14
69751;BME280;57335;52.288;6.056;2022-09-28T12:01:20;99716.22;;;17.32;56.54
69751;BME280;57335;52.288;6.056;2022-09-28T12:03:53;99700.13;;;17.24;59.80
69751;BME280;57335;52.288;6.056;2022-09-28T12:06:34;99714.47;;;17.18;61.20
69751;BME280;57335;52.288;6.056;2022-09-28T12:09:06;99712.47;;;17.04;60.24
69751;BME280;57335;52.288;6.056;2022-09-28T12:11:39;99721.19;;;17.05;59.38
69751;BME280;57335;52.288;6.056;2022-09-28T12:14:16;99713.00;;;17.01;58.48
69751;BME280;57335;52.288;6.056;2022-09-28T12:16:47;99712.47;;;17.04;58.21
69751;BME280;57335;52.288;6.056;2022-09-28T12:19:57;99695.41;;;17.15;59.75
69751;BME280;57335;52.288;6.056;2022-09-28T12:22:43;99710.47;;;17.49;57.94
69751;BME280;57335;52.288;6.056;2022-09-28T12:25:16;99710.00;;;17.71;57.20
69751;BME280;57335;52.288;6.056;2022-09-28T12:30:21;99710.59;;;18.17;57.14
69751;BME280;57335;52.288;6.056;2022-09-28T12:33:06;99715.69;;;18.32;56.76
69751;BME280;57335;52.288;6.056;2022-09-28T12:44:14;99713.31;;;18.11;52.22
69751;BME280;57335;52.288;6.056;2022-09-28T12:47:11;99713.72;;;17.70;55.96
69751;BME280;57335;52.288;6.056;2022-09-28T12:49:46;99707.38;;;17.42;57.28
69751;BME280;57335;52.288;6.056;2022-09-28T13:01:03;99698.22;;;15.85;68.44
69751;BME280;57335;52.288;6.056;2022-09-28T13:09:14;99696.44;;;15.75;71.53
69751;BME280;57335;52.288;6.056;2022-09-28T13:11:48;99706.97;;;15.81;69.78
69751;BME280;57335;52.288;6.056;2022-09-28T13:17:36;99708.03;;;15.74;70.41
69751;BME280;57335;52.288;6.056;2022-09-28T13:20:13;99700.13;;;15.74;67.13
69751;BME280;57335;52.288;6.056;2022-09-28T13:23:13;99703.53;;;15.75;67.93
69751;BME280;57335;52.288;6.056;2022-09-28T13:25:46;99709.91;;;15.74;66.82
69751;BME280;57335;52.288;6.056;2022-09-28T13:28:17;99696.69;;;15.74;67.47
69751;BME280;57335;52.288;6.056;2022-09-28T13:30:47;99692.44;;;15.78;65.35
69751;BME280;57335;52.288;6.056;2022-09-28T13:33:35;99695.88;;;15.84;64.60
69751;BME280;57335;52.288;6.056;2022-09-28T13:38:57;99685.56;;;15.82;66.28
69751;BME280;57335;52.288;6.056;2022-09-28T13:41:30;99693.22;;;15.84;64.82
69751;BME280;57335;52.288;6.056;2022-09-28T13:51:53;99695.88;;;15.53;63.74
69751;BME280;57335;52.288;6.056;2022-09-28T13:54:37;99690.63;;;15.48;66.34
69751;BME280;57335;52.288;6.056;2022-09-28T13:57:20;99697.75;;;15.47;67.81
69751;BME280;57335;52.288;6.056;2022-09-28T14:00:16;99698.81;;;15.36;67.42
69751;BME280;57335;52.288;6.056;2022-09-28T14:02:55;99708.34;;;15.22;61.86
69751;BME280;57335;52.288;6.056;2022-09-28T14:10:56;99707.81;;;15.20;66.24
69751;BME280;57335;52.288;6.056;2022-09-28T14:16:19;99699.63;;;15.36;67.46
69751;BME280;57335;52.288;6.056;2022-09-28T14:21:27;99713.84;;;15.77;65.61
69751;BME280;57335;52.288;6.056;2022-09-28T14:32:41;99698.38;;;16.20;64.65
69751;BME280;57335;52.288;6.056;2022-09-28T14:35:23;99710.75;;;16.29;64.35
69751;BME280;57335;52.288;6.056;2022-09-28T14:37:56;99707.88;;;16.26;64.73
69751;BME280;57335;52.288;6.056;2022-09-28T14:40:27;99705.25;;;16.21;64.40
69751;BME280;57335;52.288;6.056;2022-09-28T14:43:33;99714.22;;;16.25;63.48
69751;BME280;57335;52.288;6.056;2022-09-28T14:53:58;99705.38;;;15.90;64.98
69751;BME280;57335;52.288;6.056;2022-09-28T14:56:34;99709.88;;;15.79;64.93
69751;BME280;57335;52.288;6.056;2022-09-28T14:59:05;99710.13;;;15.67;65.15
69751;BME280;57335;52.288;6.056;2022-09-28T15:01:34;99715.16;;;15.59;65.70
69751;BME280;57335;52.288;6.056;2022-09-28T15:04:03;99724.16;;;15.47;66.32
69751;BME280;57335;52.288;6.056;2022-09-28T15:06:50;99726.28;;;15.35;66.77
69751;BME280;57335;52.288;6.056;2022-09-28T15:09:28;99729.72;;;15.20;67.29
69751;BME280;57335;52.288;6.056;2022-09-28T15:12:03;99732.06;;;15.06;67.39
69751;BME280;57335;52.288;6.056;2022-09-28T15:14:33;99724.41;;;14.89;68.03
69751;BME280;57335;52.288;6.056;2022-09-28T15:17:07;99744.19;;;14.87;68.45
69751;BME280;57335;52.288;6.056;2022-09-28T15:22:47;99744.41;;;14.65;68.47
69751;BME280;57335;52.288;6.056;2022-09-28T15:25:16;99741.16;;;14.52;68.46
69751;BME280;57335;52.288;6.056;2022-09-28T15:27:43;99735.59;;;14.44;69.17
69751;BME280;57335;52.288;6.056;2022-09-28T15:30:23;99747.19;;;14.43;69.47
69751;BME280;57335;52.288;6.056;2022-09-28T15:32:54;99748.22;;;14.31;71.11
69751;BME280;57335;52.288;6.056;2022-09-28T15:35:25;99754.00;;;14.28;71.33
69751;BME280;57335;52.288;6.056;2022-09-28T15:37:53;99747.06;;;14.17;71.28
69751;BME280;57335;52.288;6.056;2022-09-28T15:40:30;99746.28;;;14.16;72.51
69751;BME280;57335;52.288;6.056;2022-09-28T15:42:58;99758.97;;;14.20;72.40
69751;BME280;57335;52.288;6.056;2022-09-28T15:45:35;99768.44;;;14.15;72.56
69751;BME280;57335;52.288;6.056;2022-09-28T15:48:19;99775.50;;;14.10;73.12
69751;BME280;57335;52.288;6.056;2022-09-28T15:51:05;99778.94;;;14.10;72.94
69751;BME280;57335;52.288;6.056;2022-09-28T15:53:32;99779.19;;;14.09;72.18